sensor_id;sensor_type;location;lat;lon;timestamp;temperature;humidity
14577;DHT22;7375;46.072;14.470;2022-08-25T00:01:33;24.20;62.90
14577;DHT22;7375;46.072;14.470;2022-08-25T00:04:02;24.20;62.90
14577;DHT22;7375;46.072;14.470;2022-08-25T00:06:29;24.20;62.90
14577;DHT22;7375;46.072;14.470;2022-08-25T00:08:56;24.20;63.00
14577;DHT22;7375;46.072;14.470;2022-08-25T00:11:25;24.20;62.90
14577;DHT22;7375;46.072;14.470;2022-08-25T00:13:52;24.20;62.90
14577;DHT22;7375;46.072;14.470;2022-08-25T00:16:21;24.20;63.00
14577;DHT22;7375;46.072;14.470;2022-08-25T00:18:51;24.20;62.90
14577;DHT22;7375;46.072;14.470;2022-08-25T00:21:18;24.20;63.00
14577;DHT22;7375;46.072;14.470;2022-08-25T00:23:51;24.20;63.00
14577;DHT22;7375;46.072;14.470;2022-08-25T00:26:18;24.20;63.10
14577;DHT22;7375;46.072;14.470;2022-08-25T00:28:45;24.20;63.10
14577;DHT22;7375;46.072;14.470;2022-08-25T00:31:29;24.20;63.10
14577;DHT22;7375;46.072;14.470;2022-08-25T00:33:57;24.20;63.10
14577;DHT22;7375;46.072;14.470;2022-08-25T00:36:26;24.20;63.10
14577;DHT22;7375;46.072;14.470;2022-08-25T00:38:54;24.20;63.20
14577;DHT22;7375;46.072;14.470;2022-08-25T00:41:22;24.20;63.20
14577;DHT22;7375;46.072;14.470;2022-08-25T00:43:50;24.20;63.20
14577;DHT22;7375;46.072;14.470;2022-08-25T00:46:19;24.20;63.20
14577;DHT22;7375;46.072;14.470;2022-08-25T00:48:47;24.20;63.20
14577;DHT22;7375;46.072;14.470;2022-08-25T00:51:19;24.20;63.20
14577;DHT22;7375;46.072;14.470;2022-08-25T00:53:52;24.20;63.20
14577;DHT22;7375;46.072;14.470;2022-08-25T00:56:19;24.20;63.20
14577;DHT22;7375;46.072;14.470;2022-08-25T00:58:46;24.20;63.20
14577;DHT22;7375;46.072;14.470;2022-08-25T01:01:13;24.20;63.20
14577;DHT22;7375;46.072;14.470;2022-08-25T01:03:40;24.20;63.20
14577;DHT22;7375;46.072;14.470;2022-08-25T01:06:07;24.20;63.30
14577;DHT22;7375;46.072;14.470;2022-08-25T01:08:37;24.20;63.30
14577;DHT22;7375;46.072;14.470;2022-08-25T01:11:05;24.20;63.30
14577;DHT22;7375;46.072;14.470;2022-08-25T01:13:33;24.20;63.30
14577;DHT22;7375;46.072;14.470;2022-08-25T01:16:01;24.10;63.20
14577;DHT22;7375;46.072;14.470;2022-08-25T01:18:28;24.20;63.30
14577;DHT22;7375;46.072;14.470;2022-08-25T01:20:57;24.10;63.20
14577;DHT22;7375;46.072;14.470;2022-08-25T01:23:24;24.10;63.20
14577;DHT22;7375;46.072;14.470;2022-08-25T01:25:55;24.10;63.20
14577;DHT22;7375;46.072;14.470;2022-08-25T01:28:24;24.10;63.30
14577;DHT22;7375;46.072;14.470;2022-08-25T01:30:50;24.10;63.30
14577;DHT22;7375;46.072;14.470;2022-08-25T01:33:17;24.10;63.30
14577;DHT22;7375;46.072;14.470;2022-08-25T01:35:44;24.10;63.40
14577;DHT22;7375;46.072;14.470;2022-08-25T01:38:13;24.10;63.40
14577;DHT22;7375;46.072;14.470;2022-08-25T01:40:40;24.10;63.50
14577;DHT22;7375;46.072;14.470;2022-08-25T01:43:11;24.10;63.50
14577;DHT22;7375;46.072;14.470;2022-08-25T01:45:38;24.10;63.60
14577;DHT22;7375;46.072;14.470;2022-08-25T01:48:06;24.10;63.60
14577;DHT22;7375;46.072;14.470;2022-08-25T01:50:33;24.10;63.70
14577;DHT22;7375;46.072;14.470;2022-08-25T01:53:02;24.10;63.80
14577;DHT22;7375;46.072;14.470;2022-08-25T01:55:30;24.00;63.70
14577;DHT22;7375;46.072;14.470;2022-08-25T01:58:16;24.00;63.90
14577;DHT22;7375;46.072;14.470;2022-08-25T02:00:43;24.00;63.90
14577;DHT22;7375;46.072;14.470;2022-08-25T02:03:10;24.00;63.90
14577;DHT22;7375;46.072;14.470;2022-08-25T02:05:37;24.00;63.90
14577;DHT22;7375;46.072;14.470;2022-08-25T02:08:03;24.00;64.00
14577;DHT22;7375;46.072;14.470;2022-08-25T02:10:32;24.00;64.00
14577;DHT22;7375;46.072;14.470;2022-08-25T02:13:02;24.00;64.10
14577;DHT22;7375;46.072;14.470;2022-08-25T02:15:28;24.00;64.10
14577;DHT22;7375;46.072;14.470;2022-08-25T02:17:55;24.00;64.10
14577;DHT22;7375;46.072;14.470;2022-08-25T02:20:22;24.00;64.20
14577;DHT22;7375;46.072;14.470;2022-08-25T02:22:49;24.00;64.20
14577;DHT22;7375;46.072;14.470;2022-08-25T02:25:16;24.00;64.20
14577;DHT22;7375;46.072;14.470;2022-08-25T02:27:44;24.00;64.20
14577;DHT22;7375;46.072;14.470;2022-08-25T02:30:11;24.00;64.20
14577;DHT22;7375;46.072;14.470;2022-08-25T02:32:41;24.00;64.20
14577;DHT22;7375;46.072;14.470;2022-08-25T02:35:08;24.00;64.20
14577;DHT22;7375;46.072;14.470;2022-08-25T02:37:35;24.00;64.20
14577;DHT22;7375;46.072;14.470;2022-08-25T02:40:03;24.00;64.30
14577;DHT22;7375;46.072;14.470;2022-08-25T02:42:29;24.00;64.30
14577;DHT22;7375;46.072;14.470;2022-08-25T02:44:57;23.90;64.30
14577;DHT22;7375;46.072;14.470;2022-08-25T02:47:24;24.00;64.30
14577;DHT22;7375;46.072;14.470;2022-08-25T02:49:51;24.00;64.30
14577;DHT22;7375;46.072;14.470;2022-08-25T02:52:18;24.00;64.30
14577;DHT22;7375;46.072;14.470;2022-08-25T02:54:44;24.00;64.30
14577;DHT22;7375;46.072;14.470;2022-08-25T02:57:11;23.90;64.30
14577;DHT22;7375;46.072;14.470;2022-08-25T02:59:40;23.90;64.30
14577;DHT22;7375;46.072;14.470;2022-08-25T03:02:08;23.90;64.40
14577;DHT22;7375;46.072;14.470;2022-08-25T03:04:35;23.90;64.40
14577;DHT22;7375;46.072;14.470;2022-08-25T03:07:01;23.90;64.40
14577;DHT22;7375;46.072;14.470;2022-08-25T03:09:29;23.90;64.40
14577;DHT22;7375;46.072;14.470;2022-08-25T03:11:56;23.90;64.40
14577;DHT22;7375;46.072;14.470;2022-08-25T03:14:22;23.90;64.40
14577;DHT22;7375;46.072;14.470;2022-08-25T03:16:49;23.90;64.40
14577;DHT22;7375;46.072;14.470;2022-08-25T03:19:17;23.90;64.50
14577;DHT22;7375;46.072;14.470;2022-08-25T03:21:44;23.90;64.60
14577;DHT22;7375;46.072;14.470;2022-08-25T03:24:11;23.90;64.40
14577;DHT22;7375;46.072;14.470;2022-08-25T03:26:37;23.90;64.40
14577;DHT22;7375;46.072;14.470;2022-08-25T03:29:20;23.90;64.40
14577;DHT22;7375;46.072;14.470;2022-08-25T03:31:48;23.90;64.50
14577;DHT22;7375;46.072;14.470;2022-08-25T03:34:15;23.90;64.50
14577;DHT22;7375;46.072;14.470;2022-08-25T03:36:44;23.90;64.50
14577;DHT22;7375;46.072;14.470;2022-08-25T03:39:11;23.90;64.50
14577;DHT22;7375;46.072;14.470;2022-08-25T03:41:38;23.90;64.50
14577;DHT22;7375;46.072;14.470;2022-08-25T03:44:05;23.90;64.50
14577;DHT22;7375;46.072;14.470;2022-08-25T03:46:35;23.90;64.50
14577;DHT22;7375;46.072;14.470;2022-08-25T03:49:03;23.90;64.60
14577;DHT22;7375;46.072;14.470;2022-08-25T03:51:31;23.90;64.60
14577;DHT22;7375;46.072;14.470;2022-08-25T03:54:00;23.90;64.60
14577;DHT22;7375;46.072;14.470;2022-08-25T03:56:27;23.90;64.60
14577;DHT22;7375;46.072;14.470;2022-08-25T03:58:54;23.90;64.60
14577;DHT22;7375;46.072;14.470;2022-08-25T04:01:21;23.90;64.60
14577;DHT22;7375;46.072;14.470;2022-08-25T04:03:48;23.90;64.70
14577;DHT22;7375;46.072;14.470;2022-08-25T04:06:15;23.90;64.70
14577;DHT22;7375;46.072;14.470;2022-08-25T04:08:42;23.90;64.70
14577;DHT22;7375;46.072;14.470;2022-08-25T04:11:12;23.90;64.60
14577;DHT22;7375;46.072;14.470;2022-08-25T04:13:39;23.90;64.70
14577;DHT22;7375;46.072;14.470;2022-08-25T04:16:09;23.90;64.70
14577;DHT22;7375;46.072;14.470;2022-08-25T04:18:36;23.80;64.60
14577;DHT22;7375;46.072;14.470;2022-08-25T04:21:03;23.80;64.60
14577;DHT22;7375;46.072;14.470;2022-08-25T04:23:30;23.80;64.50
14577;DHT22;7375;46.072;14.470;2022-08-25T04:25:57;23.90;64.70
14577;DHT22;7375;46.072;14.470;2022-08-25T04:28:25;23.80;64.60
14577;DHT22;7375;46.072;14.470;2022-08-25T04:30:51;23.90;64.70
14577;DHT22;7375;46.072;14.470;2022-08-25T04:33:18;23.90;64.70
14577;DHT22;7375;46.072;14.470;2022-08-25T04:35:48;23.80;64.60
14577;DHT22;7375;46.072;14.470;2022-08-25T04:38:15;23.80;64.60
14577;DHT22;7375;46.072;14.470;2022-08-25T04:40:41;23.80;64.60
14577;DHT22;7375;46.072;14.470;2022-08-25T04:43:08;23.80;64.60
14577;DHT22;7375;46.072;14.470;2022-08-25T04:45:37;23.90;64.70
14577;DHT22;7375;46.072;14.470;2022-08-25T04:48:04;23.80;64.70
14577;DHT22;7375;46.072;14.470;2022-08-25T04:50:30;23.90;64.70
14577;DHT22;7375;46.072;14.470;2022-08-25T04:52:57;23.80;64.60
14577;DHT22;7375;46.072;14.470;2022-08-25T04:55:24;23.80;64.70
14577;DHT22;7375;46.072;14.470;2022-08-25T04:57:50;23.90;64.80
14577;DHT22;7375;46.072;14.470;2022-08-25T05:00:17;23.90;65.30
14577;DHT22;7375;46.072;14.470;2022-08-25T05:02:45;23.90;64.80
14577;DHT22;7375;46.072;14.470;2022-08-25T05:05:12;23.90;64.70
14577;DHT22;7375;46.072;14.470;2022-08-25T05:07:39;23.90;64.70
14577;DHT22;7375;46.072;14.470;2022-08-25T05:10:06;23.90;64.70
14577;DHT22;7375;46.072;14.470;2022-08-25T05:12:33;23.90;64.70
14577;DHT22;7375;46.072;14.470;2022-08-25T05:15:00;23.90;64.70
14577;DHT22;7375;46.072;14.470;2022-08-25T05:17:48;23.90;64.70
14577;DHT22;7375;46.072;14.470;2022-08-25T05:20:15;23.90;64.70
14577;DHT22;7375;46.072;14.470;2022-08-25T05:22:43;23.90;64.60
14577;DHT22;7375;46.072;14.470;2022-08-25T05:25:09;23.90;64.70
14577;DHT22;7375;46.072;14.470;2022-08-25T05:27:36;23.90;64.70
14577;DHT22;7375;46.072;14.470;2022-08-25T05:30:03;23.90;64.70
14577;DHT22;7375;46.072;14.470;2022-08-25T05:32:30;23.90;64.60
14577;DHT22;7375;46.072;14.470;2022-08-25T05:34:58;24.00;64.60
14577;DHT22;7375;46.072;14.470;2022-08-25T05:37:25;24.00;64.60
14577;DHT22;7375;46.072;14.470;2022-08-25T05:39:52;24.00;64.50
14577;DHT22;7375;46.072;14.470;2022-08-25T05:42:18;24.00;64.50
14577;DHT22;7375;46.072;14.470;2022-08-25T05:44:46;24.00;64.50
14577;DHT22;7375;46.072;14.470;2022-08-25T05:47:13;24.00;64.40
14577;DHT22;7375;46.072;14.470;2022-08-25T05:49:40;24.10;64.40
14577;DHT22;7375;46.072;14.470;2022-08-25T05:52:08;24.10;64.40
14577;DHT22;7375;46.072;14.470;2022-08-25T05:54:35;24.10;64.40
14577;DHT22;7375;46.072;14.470;2022-08-25T05:57:02;24.10;64.40
14577;DHT22;7375;46.072;14.470;2022-08-25T05:59:28;24.10;64.30
14577;DHT22;7375;46.072;14.470;2022-08-25T06:01:55;24.10;64.30
14577;DHT22;7375;46.072;14.470;2022-08-25T06:04:40;24.10;64.20
14577;DHT22;7375;46.072;14.470;2022-08-25T06:07:06;24.20;64.10
14577;DHT22;7375;46.072;14.470;2022-08-25T06:09:38;24.20;64.10
14577;DHT22;7375;46.072;14.470;2022-08-25T06:12:05;24.20;64.20
14577;DHT22;7375;46.072;14.470;2022-08-25T06:14:33;24.20;64.10
14577;DHT22;7375;46.072;14.470;2022-08-25T06:17:00;24.20;64.10
14577;DHT22;7375;46.072;14.470;2022-08-25T06:19:30;24.30;64.10
14577;DHT22;7375;46.072;14.470;2022-08-25T06:22:00;24.30;64.00
14577;DHT22;7375;46.072;14.470;2022-08-25T06:24:27;24.30;63.90
14577;DHT22;7375;46.072;14.470;2022-08-25T06:26:56;24.30;63.80
14577;DHT22;7375;46.072;14.470;2022-08-25T06:29:23;24.40;63.70
14577;DHT22;7375;46.072;14.470;2022-08-25T06:31:50;24.30;63.60
14577;DHT22;7375;46.072;14.470;2022-08-25T06:34:17;24.40;63.50
14577;DHT22;7375;46.072;14.470;2022-08-25T06:36:45;24.40;63.50
14577;DHT22;7375;46.072;14.470;2022-08-25T06:39:16;24.40;63.30
14577;DHT22;7375;46.072;14.470;2022-08-25T06:41:51;24.50;63.30
14577;DHT22;7375;46.072;14.470;2022-08-25T06:44:20;24.50;63.10
14577;DHT22;7375;46.072;14.470;2022-08-25T06:46:50;24.50;63.10
14577;DHT22;7375;46.072;14.470;2022-08-25T06:49:17;24.60;63.00
14577;DHT22;7375;46.072;14.470;2022-08-25T06:51:44;24.70;62.80
14577;DHT22;7375;46.072;14.470;2022-08-25T06:54:11;24.70;62.60
14577;DHT22;7375;46.072;14.470;2022-08-25T06:56:38;24.70;62.40
14577;DHT22;7375;46.072;14.470;2022-08-25T06:59:06;24.80;62.60
14577;DHT22;7375;46.072;14.470;2022-08-25T07:01:35;25.00;62.40
14577;DHT22;7375;46.072;14.470;2022-08-25T07:04:03;25.10;61.80
14577;DHT22;7375;46.072;14.470;2022-08-25T07:06:31;25.30;61.40
14577;DHT22;7375;46.072;14.470;2022-08-25T07:09:00;25.40;61.00
14577;DHT22;7375;46.072;14.470;2022-08-25T07:11:27;25.40;60.70
14577;DHT22;7375;46.072;14.470;2022-08-25T07:13:54;25.60;60.60
14577;DHT22;7375;46.072;14.470;2022-08-25T07:16:20;25.60;60.70
14577;DHT22;7375;46.072;14.470;2022-08-25T07:18:49;25.60;60.80
14577;DHT22;7375;46.072;14.470;2022-08-25T07:21:20;25.60;61.00
14577;DHT22;7375;46.072;14.470;2022-08-25T07:23:47;25.60;61.20
14577;DHT22;7375;46.072;14.470;2022-08-25T07:26:16;25.60;61.00
14577;DHT22;7375;46.072;14.470;2022-08-25T07:28:43;25.70;60.70
14577;DHT22;7375;46.072;14.470;2022-08-25T07:31:11;25.80;60.60
14577;DHT22;7375;46.072;14.470;2022-08-25T07:33:38;25.90;60.40
14577;DHT22;7375;46.072;14.470;2022-08-25T07:36:27;25.90;60.10
14577;DHT22;7375;46.072;14.470;2022-08-25T07:38:53;26.10;59.80
14577;DHT22;7375;46.072;14.470;2022-08-25T07:41:19;26.00;59.80
14577;DHT22;7375;46.072;14.470;2022-08-25T07:43:49;26.10;59.60
14577;DHT22;7375;46.072;14.470;2022-08-25T07:46:16;26.10;59.30
14577;DHT22;7375;46.072;14.470;2022-08-25T07:48:43;26.20;59.20
14577;DHT22;7375;46.072;14.470;2022-08-25T07:51:11;26.30;58.90
14577;DHT22;7375;46.072;14.470;2022-08-25T07:53:41;26.30;58.70
14577;DHT22;7375;46.072;14.470;2022-08-25T07:56:09;26.30;58.80
14577;DHT22;7375;46.072;14.470;2022-08-25T07:58:36;26.40;58.50
14577;DHT22;7375;46.072;14.470;2022-08-25T08:01:03;26.50;58.20
14577;DHT22;7375;46.072;14.470;2022-08-25T08:03:29;26.60;58.10
14577;DHT22;7375;46.072;14.470;2022-08-25T08:05:58;26.70;57.90
14577;DHT22;7375;46.072;14.470;2022-08-25T08:08:25;26.70;57.70
14577;DHT22;7375;46.072;14.470;2022-08-25T08:10:53;26.70;57.60
14577;DHT22;7375;46.072;14.470;2022-08-25T08:13:20;26.80;58.10
14577;DHT22;7375;46.072;14.470;2022-08-25T08:15:47;26.70;57.30
14577;DHT22;7375;46.072;14.470;2022-08-25T08:18:14;26.60;57.60
14577;DHT22;7375;46.072;14.470;2022-08-25T08:20:42;26.60;57.80
14577;DHT22;7375;46.072;14.470;2022-08-25T08:23:09;26.50;57.80
14577;DHT22;7375;46.072;14.470;2022-08-25T08:25:36;26.60;57.80
14577;DHT22;7375;46.072;14.470;2022-08-25T08:28:04;26.60;57.70
14577;DHT22;7375;46.072;14.470;2022-08-25T08:30:31;26.70;57.70
14577;DHT22;7375;46.072;14.470;2022-08-25T08:32:57;26.70;58.00
14577;DHT22;7375;46.072;14.470;2022-08-25T08:35:24;26.80;57.50
14577;DHT22;7375;46.072;14.470;2022-08-25T08:37:51;26.80;57.40
14577;DHT22;7375;46.072;14.470;2022-08-25T08:40:18;26.70;57.30
14577;DHT22;7375;46.072;14.470;2022-08-25T08:42:48;26.60;57.60
14577;DHT22;7375;46.072;14.470;2022-08-25T08:45:23;26.70;58.20
14577;DHT22;7375;46.072;14.470;2022-08-25T08:47:53;26.70;57.40
14577;DHT22;7375;46.072;14.470;2022-08-25T08:50:27;26.80;57.30
14577;DHT22;7375;46.072;14.470;2022-08-25T08:52:58;26.80;57.10
14577;DHT22;7375;46.072;14.470;2022-08-25T08:55:27;26.90;57.00
14577;DHT22;7375;46.072;14.470;2022-08-25T08:57:56;26.90;56.90
14577;DHT22;7375;46.072;14.470;2022-08-25T09:00:24;26.90;56.80
14577;DHT22;7375;46.072;14.470;2022-08-25T09:02:52;26.90;56.80
14577;DHT22;7375;46.072;14.470;2022-08-25T09:05:23;27.00;56.80
14577;DHT22;7375;46.072;14.470;2022-08-25T09:07:53;26.90;56.80
14577;DHT22;7375;46.072;14.470;2022-08-25T09:10:20;26.70;57.10
14577;DHT22;7375;46.072;14.470;2022-08-25T09:12:49;26.50;57.70
14577;DHT22;7375;46.072;14.470;2022-08-25T09:15:22;26.50;57.80
14577;DHT22;7375;46.072;14.470;2022-08-25T09:18:16;26.50;57.60
14577;DHT22;7375;46.072;14.470;2022-08-25T09:20:49;26.40;58.00
14577;DHT22;7375;46.072;14.470;2022-08-25T09:23:22;26.50;57.70
14577;DHT22;7375;46.072;14.470;2022-08-25T09:25:52;26.50;57.90
14577;DHT22;7375;46.072;14.470;2022-08-25T09:28:24;26.60;57.70
14577;DHT22;7375;46.072;14.470;2022-08-25T09:30:57;26.50;57.70
14577;DHT22;7375;46.072;14.470;2022-08-25T09:33:27;26.60;57.60
14577;DHT22;7375;46.072;14.470;2022-08-25T09:35:54;26.70;57.40
14577;DHT22;7375;46.072;14.470;2022-08-25T09:38:21;26.70;57.30
14577;DHT22;7375;46.072;14.470;2022-08-25T09:40:49;26.70;57.30
14577;DHT22;7375;46.072;14.470;2022-08-25T09:43:20;26.70;57.20
14577;DHT22;7375;46.072;14.470;2022-08-25T09:45:49;26.70;57.40
14577;DHT22;7375;46.072;14.470;2022-08-25T09:48:22;26.70;57.40
14577;DHT22;7375;46.072;14.470;2022-08-25T09:50:50;26.60;57.40
14577;DHT22;7375;46.072;14.470;2022-08-25T09:53:18;26.50;57.80
14577;DHT22;7375;46.072;14.470;2022-08-25T09:55:45;26.40;58.00
14577;DHT22;7375;46.072;14.470;2022-08-25T09:58:16;26.50;57.70
14577;DHT22;7375;46.072;14.470;2022-08-25T10:00:43;26.70;57.50
14577;DHT22;7375;46.072;14.470;2022-08-25T10:03:18;26.70;57.40
14577;DHT22;7375;46.072;14.470;2022-08-25T10:05:56;26.70;57.40
14577;DHT22;7375;46.072;14.470;2022-08-25T10:08:25;26.70;57.40
14577;DHT22;7375;46.072;14.470;2022-08-25T10:10:52;26.70;57.30
14577;DHT22;7375;46.072;14.470;2022-08-25T10:13:20;26.70;57.40
14577;DHT22;7375;46.072;14.470;2022-08-25T10:15:47;26.70;57.40
14577;DHT22;7375;46.072;14.470;2022-08-25T10:18:28;26.60;57.40
14577;DHT22;7375;46.072;14.470;2022-08-25T10:21:04;26.50;57.50
14577;DHT22;7375;46.072;14.470;2022-08-25T10:23:31;26.40;57.80
14577;DHT22;7375;46.072;14.470;2022-08-25T10:26:03;26.40;57.80
14577;DHT22;7375;46.072;14.470;2022-08-25T10:28:31;26.40;58.00
14577;DHT22;7375;46.072;14.470;2022-08-25T10:31:01;26.40;57.90
14577;DHT22;7375;46.072;14.470;2022-08-25T10:33:32;26.30;58.00
14577;DHT22;7375;46.072;14.470;2022-08-25T10:36:05;26.30;58.20
14577;DHT22;7375;46.072;14.470;2022-08-25T10:38:36;26.20;58.20
14577;DHT22;7375;46.072;14.470;2022-08-25T10:41:09;26.20;58.30
14577;DHT22;7375;46.072;14.470;2022-08-25T10:43:41;26.20;58.40
14577;DHT22;7375;46.072;14.470;2022-08-25T10:46:11;26.20;58.20
14577;DHT22;7375;46.072;14.470;2022-08-25T10:51:30;26.10;58.50
14577;DHT22;7375;46.072;14.470;2022-08-25T10:54:00;26.10;58.60
14577;DHT22;7375;46.072;14.470;2022-08-25T10:56:30;26.10;58.60
14577;DHT22;7375;46.072;14.470;2022-08-25T10:59:15;26.00;58.70
14577;DHT22;7375;46.072;14.470;2022-08-25T11:01:50;26.10;58.70
14577;DHT22;7375;46.072;14.470;2022-08-25T11:04:18;26.10;58.60
14577;DHT22;7375;46.072;14.470;2022-08-25T11:06:54;26.10;58.60
14577;DHT22;7375;46.072;14.470;2022-08-25T11:09:22;26.10;58.60
14577;DHT22;7375;46.072;14.470;2022-08-25T11:11:51;26.10;58.50
14577;DHT22;7375;46.072;14.470;2022-08-25T11:14:20;26.10;59.10
14577;DHT22;7375;46.072;14.470;2022-08-25T11:16:50;26.10;58.60
14577;DHT22;7375;46.072;14.470;2022-08-25T11:19:18;26.10;58.60
14577;DHT22;7375;46.072;14.470;2022-08-25T11:21:48;26.10;58.50
14577;DHT22;7375;46.072;14.470;2022-08-25T11:24:25;26.10;58.50
14577;DHT22;7375;46.072;14.470;2022-08-25T11:26:57;26.10;58.50
14577;DHT22;7375;46.072;14.470;2022-08-25T11:29:25;26.10;58.50
14577;DHT22;7375;46.072;14.470;2022-08-25T11:31:56;26.10;58.50
14577;DHT22;7375;46.072;14.470;2022-08-25T11:34:24;26.10;58.50
14577;DHT22;7375;46.072;14.470;2022-08-25T11:36:51;26.10;58.50
14577;DHT22;7375;46.072;14.470;2022-08-25T11:39:24;26.10;58.50
14577;DHT22;7375;46.072;14.470;2022-08-25T11:41:58;26.10;58.60
14577;DHT22;7375;46.072;14.470;2022-08-25T11:44:48;26.00;58.50
14577;DHT22;7375;46.072;14.470;2022-08-25T11:47:20;26.00;58.50
14577;DHT22;7375;46.072;14.470;2022-08-25T11:49:52;26.10;58.60
14577;DHT22;7375;46.072;14.470;2022-08-25T11:55:07;26.00;58.40
14577;DHT22;7375;46.072;14.470;2022-08-25T11:57:36;26.00;58.40
14577;DHT22;7375;46.072;14.470;2022-08-25T12:00:04;26.10;58.50
14577;DHT22;7375;46.072;14.470;2022-08-25T12:02:34;26.00;58.50
14577;DHT22;7375;46.072;14.470;2022-08-25T12:05:02;26.00;58.50
14577;DHT22;7375;46.072;14.470;2022-08-25T12:13:26;26.00;58.60
14577;DHT22;7375;46.072;14.470;2022-08-25T12:15:57;26.00;58.60
14577;DHT22;7375;46.072;14.470;2022-08-25T12:21:15;26.00;58.60
14577;DHT22;7375;46.072;14.470;2022-08-25T12:24:04;26.00;58.60
14577;DHT22;7375;46.072;14.470;2022-08-25T12:26:34;26.10;58.60
14577;DHT22;7375;46.072;14.470;2022-08-25T12:29:06;26.00;58.50
14577;DHT22;7375;46.072;14.470;2022-08-25T12:34:24;26.00;58.60
14577;DHT22;7375;46.072;14.470;2022-08-25T12:36:56;26.00;58.50
14577;DHT22;7375;46.072;14.470;2022-08-25T12:39:27;26.00;58.60
14577;DHT22;7375;46.072;14.470;2022-08-25T12:41:55;26.00;58.60
14577;DHT22;7375;46.072;14.470;2022-08-25T12:44:35;26.00;58.60
14577;DHT22;7375;46.072;14.470;2022-08-25T12:47:04;26.00;58.60
14577;DHT22;7375;46.072;14.470;2022-08-25T12:49:32;26.00;58.70
14577;DHT22;7375;46.072;14.470;2022-08-25T12:52:00;25.90;58.60
14577;DHT22;7375;46.072;14.470;2022-08-25T12:54:38;25.90;58.60
14577;DHT22;7375;46.072;14.470;2022-08-25T12:57:13;25.90;58.70
14577;DHT22;7375;46.072;14.470;2022-08-25T12:59:47;25.90;58.70
14577;DHT22;7375;46.072;14.470;2022-08-25T13:02:26;25.90;58.80
14577;DHT22;7375;46.072;14.470;2022-08-25T13:05:03;25.90;58.80
14577;DHT22;7375;46.072;14.470;2022-08-25T13:07:41;25.90;58.80
14577;DHT22;7375;46.072;14.470;2022-08-25T13:10:19;25.90;58.70
14577;DHT22;7375;46.072;14.470;2022-08-25T13:12:49;25.90;58.80
14577;DHT22;7375;46.072;14.470;2022-08-25T13:15:26;25.90;58.80
14577;DHT22;7375;46.072;14.470;2022-08-25T13:17:53;25.90;58.80
14577;DHT22;7375;46.072;14.470;2022-08-25T13:20:22;25.90;58.80
14577;DHT22;7375;46.072;14.470;2022-08-25T13:22:50;25.80;58.70
14577;DHT22;7375;46.072;14.470;2022-08-25T13:25:18;25.90;58.80
14577;DHT22;7375;46.072;14.470;2022-08-25T13:27:49;25.80;58.80
14577;DHT22;7375;46.072;14.470;2022-08-25T13:30:26;25.90;58.90
14577;DHT22;7375;46.072;14.470;2022-08-25T13:32:53;25.80;58.80
14577;DHT22;7375;46.072;14.470;2022-08-25T13:35:20;25.80;58.80
14577;DHT22;7375;46.072;14.470;2022-08-25T13:37:47;25.80;58.90
14577;DHT22;7375;46.072;14.470;2022-08-25T13:40:14;25.80;58.90
14577;DHT22;7375;46.072;14.470;2022-08-25T13:42:42;25.80;58.90
14577;DHT22;7375;46.072;14.470;2022-08-25T13:45:11;25.80;58.90
14577;DHT22;7375;46.072;14.470;2022-08-25T13:47:41;25.80;58.90
14577;DHT22;7375;46.072;14.470;2022-08-25T13:50:16;25.80;58.90
14577;DHT22;7375;46.072;14.470;2022-08-25T13:52:46;25.80;58.90
14577;DHT22;7375;46.072;14.470;2022-08-25T13:55:17;25.80;58.90
14577;DHT22;7375;46.072;14.470;2022-08-25T13:57:44;25.80;58.90
14577;DHT22;7375;46.072;14.470;2022-08-25T14:00:11;25.80;58.90
14577;DHT22;7375;46.072;14.470;2022-08-25T14:02:39;25.80;58.90
14577;DHT22;7375;46.072;14.470;2022-08-25T14:05:08;25.80;58.90
14577;DHT22;7375;46.072;14.470;2022-08-25T14:07:36;25.80;58.90
14577;DHT22;7375;46.072;14.470;2022-08-25T14:10:04;25.80;58.90
14577;DHT22;7375;46.072;14.470;2022-08-25T14:12:32;25.80;59.00
14577;DHT22;7375;46.072;14.470;2022-08-25T14:15:01;25.80;59.00
14577;DHT22;7375;46.072;14.470;2022-08-25T14:17:28;25.70;59.00
14577;DHT22;7375;46.072;14.470;2022-08-25T14:19:54;25.70;59.00
14577;DHT22;7375;46.072;14.470;2022-08-25T14:22:23;25.80;59.10
14577;DHT22;7375;46.072;14.470;2022-08-25T14:24:50;25.70;59.10
14577;DHT22;7375;46.072;14.470;2022-08-25T14:27:17;25.70;59.10
14577;DHT22;7375;46.072;14.470;2022-08-25T14:29:44;25.80;59.10
14577;DHT22;7375;46.072;14.470;2022-08-25T14:32:11;25.70;59.10
14577;DHT22;7375;46.072;14.470;2022-08-25T14:34:39;25.70;59.10
14577;DHT22;7375;46.072;14.470;2022-08-25T14:37:07;25.70;59.10
14577;DHT22;7375;46.072;14.470;2022-08-25T14:39:37;25.70;59.10
14577;DHT22;7375;46.072;14.470;2022-08-25T14:42:04;25.70;59.10
14577;DHT22;7375;46.072;14.470;2022-08-25T14:44:33;25.70;59.10
14577;DHT22;7375;46.072;14.470;2022-08-25T14:47:00;25.70;59.10
14577;DHT22;7375;46.072;14.470;2022-08-25T14:49:28;25.70;59.10
14577;DHT22;7375;46.072;14.470;2022-08-25T14:51:58;25.70;59.10
14577;DHT22;7375;46.072;14.470;2022-08-25T14:54:26;25.70;59.10
14577;DHT22;7375;46.072;14.470;2022-08-25T14:56:54;25.70;59.10
14577;DHT22;7375;46.072;14.470;2022-08-25T14:59:22;25.70;59.00
14577;DHT22;7375;46.072;14.470;2022-08-25T15:01:49;25.70;59.00
14577;DHT22;7375;46.072;14.470;2022-08-25T15:04:17;25.70;59.00
14577;DHT22;7375;46.072;14.470;2022-08-25T15:06:44;25.80;59.10
14577;DHT22;7375;46.072;14.470;2022-08-25T15:09:12;25.70;59.00
14577;DHT22;7375;46.072;14.470;2022-08-25T15:11:41;25.70;59.10
14577;DHT22;7375;46.072;14.470;2022-08-25T15:14:10;25.70;59.10
14577;DHT22;7375;46.072;14.470;2022-08-25T15:16:38;25.70;59.10
14577;DHT22;7375;46.072;14.470;2022-08-25T15:19:06;25.70;59.10
14577;DHT22;7375;46.072;14.470;2022-08-25T15:21:33;25.70;59.10
14577;DHT22;7375;46.072;14.470;2022-08-25T15:24:00;25.70;59.20
14577;DHT22;7375;46.072;14.470;2022-08-25T15:26:28;25.70;59.20
14577;DHT22;7375;46.072;14.470;2022-08-25T15:28:58;25.60;59.70
14577;DHT22;7375;46.072;14.470;2022-08-25T15:31:26;25.60;59.10
14577;DHT22;7375;46.072;14.470;2022-08-25T15:33:53;25.60;59.10
14577;DHT22;7375;46.072;14.470;2022-08-25T15:36:20;25.60;59.20
14577;DHT22;7375;46.072;14.470;2022-08-25T15:38:49;25.60;59.20
14577;DHT22;7375;46.072;14.470;2022-08-25T15:41:15;25.70;59.30
14577;DHT22;7375;46.072;14.470;2022-08-25T15:43:42;25.60;59.20
14577;DHT22;7375;46.072;14.470;2022-08-25T15:46:09;25.60;59.20
14577;DHT22;7375;46.072;14.470;2022-08-25T15:48:39;25.70;59.20
14577;DHT22;7375;46.072;14.470;2022-08-25T15:51:06;25.60;59.20
14577;DHT22;7375;46.072;14.470;2022-08-25T15:53:33;25.60;59.20
14577;DHT22;7375;46.072;14.470;2022-08-25T15:56:00;25.60;59.20
14577;DHT22;7375;46.072;14.470;2022-08-25T15:58:27;25.60;59.20